createdAt,value
2022-12-29T00:00:12.231Z,99.71
2022-12-29T00:03:03.689Z,99.58
2022-12-29T00:05:32.003Z,99.47
2022-12-29T00:08:01.135Z,99.39
2022-12-29T00:10:29.427Z,99.33
2022-12-29T00:13:16.411Z,99.28
2022-12-29T00:15:44.619Z,99.29
2022-12-29T00:18:12.807Z,99.06
2022-12-29T00:21:00.616Z,98.97
2022-12-29T00:23:47.083Z,98.80
2022-12-29T00:26:36.331Z,98.75
2022-12-29T00:29:23.179Z,98.74
2022-12-29T00:32:09.832Z,98.70
2022-12-29T00:34:56.478Z,98.59
2022-12-29T00:37:44.806Z,98.41
2022-12-29T00:40:32.449Z,98.17
2022-12-29T00:43:19.363Z,98.03
2022-12-29T00:45:47.507Z,98.16
2022-12-29T00:48:15.707Z,98.06
2022-12-29T00:50:43.855Z,98.08
2022-12-29T00:53:12.010Z,98.23
2022-12-29T00:55:40.136Z,98.23
2022-12-29T00:58:08.587Z,98.37
2022-12-29T01:00:36.952Z,98.34
2022-12-29T01:03:05.427Z,98.38
2022-12-29T01:05:38.002Z,98.36
2022-12-29T01:08:07.999Z,98.58
2022-12-29T01:10:36.170Z,98.61
2022-12-29T01:13:04.468Z,98.91
2022-12-29T01:15:32.620Z,98.99
2022-12-29T01:18:02.028Z,98.92
2022-12-29T01:20:31.780Z,98.99
2022-12-29T01:22:59.874Z,98.99
2022-12-29T01:25:28.843Z,98.97
2022-12-29T01:27:57.256Z,99.08
2022-12-29T01:30:25.443Z,99.32
2022-12-29T01:32:54.977Z,99.47
2022-12-29T01:35:23.138Z,99.75
2022-12-29T01:37:51.747Z,99.77
2022-12-29T01:40:20.719Z,99.78
2022-12-29T01:42:48.849Z,99.97
2022-12-29T01:45:18.692Z,100.00
2022-12-29T01:48:07.081Z,100.00
2022-12-29T01:50:41.113Z,100.00
2022-12-29T01:53:20.924Z,100.00
2022-12-29T01:55:56.768Z,100.00
2022-12-29T01:58:31.028Z,100.00
2022-12-29T02:01:00.809Z,100.00
2022-12-29T02:03:31.624Z,100.00
2022-12-29T02:06:11.911Z,100.00
2022-12-29T02:08:41.226Z,100.00
2022-12-29T02:11:09.432Z,100.00
2022-12-29T02:13:37.644Z,100.00
2022-12-29T02:16:27.505Z,100.00
2022-12-29T02:18:55.767Z,100.00
2022-12-29T02:21:49.270Z,100.00
2022-12-29T02:24:51.845Z,100.00
2022-12-29T02:27:42.319Z,100.00
2022-12-29T02:30:46.737Z,100.00
2022-12-29T02:33:21.784Z,100.00
2022-12-29T02:35:54.544Z,100.00
2022-12-29T02:38:28.692Z,100.00
2022-12-29T02:41:07.147Z,100.00
2022-12-29T02:43:48.973Z,100.00
2022-12-29T02:46:42.128Z,100.00
2022-12-29T02:49:28.881Z,100.00
2022-12-29T02:52:02.469Z,100.00
2022-12-29T02:54:43.138Z,100.00
2022-12-29T02:57:22.210Z,100.00
2022-12-29T02:59:54.906Z,100.00
2022-12-29T03:02:40.882Z,100.00
2022-12-29T03:05:18.409Z,100.00
2022-12-29T03:07:52.379Z,100.00
2022-12-29T03:10:39.001Z,100.00
2022-12-29T03:13:53.960Z,100.00
2022-12-29T03:16:30.651Z,100.00
2022-12-29T03:19:15.761Z,100.00
2022-12-29T03:22:13.887Z,100.00
2022-12-29T03:24:47.950Z,100.00
2022-12-29T03:27:22.583Z,100.00
2022-12-29T03:29:55.406Z,100.00
2022-12-29T03:32:29.404Z,100.00
2022-12-29T03:34:59.667Z,100.00
2022-12-29T03:37:35.318Z,100.00
2022-12-29T03:40:05.335Z,100.00
2022-12-29T03:42:36.893Z,100.00
2022-12-29T03:45:06.301Z,100.00
2022-12-29T03:47:34.589Z,100.00
2022-12-29T03:50:03.001Z,100.00
2022-12-29T03:52:32.507Z,100.00
2022-12-29T03:55:00.795Z,100.00
2022-12-29T03:57:28.993Z,100.00
2022-12-29T04:00:01.087Z,100.00
2022-12-29T04:02:31.847Z,100.00
2022-12-29T04:05:00.415Z,100.00
2022-12-29T04:07:28.649Z,100.00
2022-12-29T04:09:57.064Z,100.00
2022-12-29T04:12:31.023Z,100.00
2022-12-29T04:14:59.283Z,100.00
2022-12-29T04:17:27.712Z,100.00
2022-12-29T04:20:15.972Z,100.00
2022-12-29T04:22:45.025Z,100.00
2022-12-29T04:25:13.414Z,100.00
2022-12-29T04:27:43.570Z,100.00
2022-12-29T04:30:30.302Z,100.00
2022-12-29T04:33:07.514Z,100.00
2022-12-29T04:35:35.906Z,100.00
2022-12-29T04:38:04.883Z,100.00
2022-12-29T04:40:33.241Z,100.00
2022-12-29T04:43:02.326Z,100.00
2022-12-29T04:45:30.550Z,100.00
2022-12-29T04:48:16.053Z,100.00
2022-12-29T04:50:51.466Z,100.00
2022-12-29T04:53:21.041Z,100.00
2022-12-29T04:55:51.282Z,100.00
2022-12-29T04:58:23.578Z,100.00
2022-12-29T05:00:52.977Z,100.00
2022-12-29T05:03:24.101Z,100.00
2022-12-29T05:05:55.373Z,100.00
2022-12-29T05:08:28.023Z,100.00
2022-12-29T05:10:57.966Z,100.00
2022-12-29T05:13:26.229Z,100.00
2022-12-29T05:15:54.883Z,100.00
2022-12-29T05:18:24.991Z,100.00
2022-12-29T05:20:53.218Z,100.00
2022-12-29T05:23:22.634Z,100.00
2022-12-29T05:25:56.983Z,100.00
2022-12-29T05:28:35.375Z,100.00
2022-12-29T05:31:09.742Z,100.00
2022-12-29T05:33:37.917Z,100.00
2022-12-29T05:36:07.784Z,100.00
2022-12-29T05:38:37.385Z,100.00
2022-12-29T05:41:05.892Z,100.00
2022-12-29T05:43:52.210Z,100.00
2022-12-29T05:46:40.743Z,100.00
2022-12-29T05:49:18.256Z,100.00
2022-12-29T05:52:05.438Z,100.00
2022-12-29T05:54:34.766Z,100.00
2022-12-29T05:57:04.598Z,100.00
2022-12-29T05:59:32.967Z,100.00
2022-12-29T06:02:01.375Z,100.00
2022-12-29T06:04:30.208Z,100.00
2022-12-29T06:06:58.637Z,100.00
2022-12-29T06:09:36.540Z,100.00
2022-12-29T06:12:06.386Z,100.00
2022-12-29T06:14:34.873Z,100.00
2022-12-29T06:17:04.871Z,100.00
2022-12-29T06:19:33.922Z,100.00
2022-12-29T06:22:02.076Z,100.00
2022-12-29T06:24:30.293Z,100.00
2022-12-29T06:26:59.044Z,100.00
2022-12-29T06:29:27.144Z,100.00
2022-12-29T06:32:00.349Z,100.00
2022-12-29T06:34:30.419Z,100.00
2022-12-29T06:36:58.708Z,100.00
2022-12-29T06:39:26.799Z,100.00
2022-12-29T06:42:05.736Z,100.00
2022-12-29T06:45:08.456Z,100.00
2022-12-29T06:47:36.894Z,100.00
2022-12-29T06:50:05.649Z,100.00
2022-12-29T06:52:33.836Z,100.00
2022-12-29T06:55:01.980Z,100.00
2022-12-29T06:57:30.172Z,99.99
2022-12-29T06:59:58.426Z,99.99
2022-12-29T07:02:27.915Z,100.00
2022-12-29T07:04:58.480Z,100.00
2022-12-29T07:07:26.753Z,99.99
2022-12-29T07:09:56.715Z,99.98
2022-12-29T07:12:25.562Z,99.90
2022-12-29T07:14:54.074Z,99.95
2022-12-29T07:17:23.035Z,99.89
2022-12-29T07:19:51.318Z,99.79
2022-12-29T07:22:19.622Z,99.93
2022-12-29T07:24:47.837Z,99.91
2022-12-29T07:27:15.921Z,99.83
2022-12-29T07:29:46.247Z,99.84
2022-12-29T07:32:15.581Z,99.60
2022-12-29T07:34:46.338Z,99.61
2022-12-29T07:37:16.818Z,99.48
2022-12-29T07:39:45.745Z,99.70
2022-12-29T07:42:14.326Z,99.36
2022-12-29T07:44:45.320Z,99.74
2022-12-29T07:47:19.247Z,99.34
2022-12-29T07:49:48.749Z,99.25
2022-12-29T07:52:17.007Z,99.19
2022-12-29T07:54:48.892Z,98.80
2022-12-29T07:57:17.376Z,99.00
2022-12-29T07:59:45.900Z,98.81
2022-12-29T08:02:14.384Z,98.96
2022-12-29T08:04:42.820Z,98.84
2022-12-29T08:07:11.168Z,98.84
2022-12-29T08:09:39.583Z,98.79
2022-12-29T08:12:11.937Z,98.66
2022-12-29T08:14:40.361Z,98.72
2022-12-29T08:17:08.775Z,98.52
2022-12-29T08:19:37.845Z,98.91
2022-12-29T08:22:06.079Z,98.73
2022-12-29T08:24:34.407Z,99.03
2022-12-29T08:27:12.044Z,98.69
2022-12-29T08:29:46.337Z,98.48
2022-12-29T08:32:14.959Z,98.71
2022-12-29T08:34:43.327Z,98.26
2022-12-29T08:37:12.450Z,98.35
2022-12-29T08:39:41.543Z,98.52
2022-12-29T08:42:09.853Z,98.46
2022-12-29T08:44:38.166Z,98.30
2022-12-29T08:47:06.582Z,98.35
2022-12-29T08:49:34.867Z,98.10
2022-12-29T08:52:03.836Z,98.25
2022-12-29T08:54:32.237Z,97.65
2022-12-29T08:57:00.608Z,97.73
2022-12-29T08:59:36.104Z,97.82
2022-12-29T09:02:04.775Z,97.60
2022-12-29T09:04:33.404Z,97.50
2022-12-29T09:07:02.196Z,97.30
2022-12-29T09:09:30.983Z,96.85
2022-12-29T09:11:59.469Z,96.68
2022-12-29T09:14:27.954Z,96.80
2022-12-29T09:17:15.234Z,97.03
2022-12-29T09:19:43.595Z,97.18
2022-12-29T09:22:12.675Z,96.93
2022-12-29T09:24:41.106Z,96.42
2022-12-29T09:27:09.555Z,96.71
2022-12-29T09:29:37.904Z,96.53
2022-12-29T09:32:07.886Z,96.72
2022-12-29T09:34:36.969Z,96.53
2022-12-29T09:37:05.503Z,96.29
2022-12-29T09:39:33.926Z,96.47
2022-12-29T09:42:24.986Z,96.04
2022-12-29T09:45:18.085Z,95.68
2022-12-29T09:47:47.671Z,95.10
2022-12-29T09:50:36.797Z,94.26
2022-12-29T09:53:23.336Z,93.77
2022-12-29T09:55:59.248Z,93.53
2022-12-29T09:58:32.092Z,93.29
2022-12-29T10:01:05.813Z,93.30
2022-12-29T10:03:55.820Z,92.67
2022-12-29T10:06:24.595Z,92.39
2022-12-29T10:09:16.416Z,92.06
2022-12-29T10:12:11.888Z,91.17
2022-12-29T10:15:10.786Z,90.93
2022-12-29T10:18:00.782Z,90.82
2022-12-29T10:20:44.000Z,90.36
2022-12-29T10:23:21.714Z,90.10
2022-12-29T10:25:51.931Z,90.28
2022-12-29T10:28:23.929Z,90.19
2022-12-29T10:30:54.557Z,89.98
2022-12-29T10:33:28.015Z,90.18
2022-12-29T10:35:56.407Z,89.88
2022-12-29T10:38:25.012Z,89.72
2022-12-29T10:41:12.909Z,89.85
2022-12-29T10:43:44.050Z,89.61
2022-12-29T10:46:17.178Z,89.72
2022-12-29T10:48:47.820Z,89.83
2022-12-29T10:51:31.543Z,89.91
2022-12-29T10:54:06.593Z,89.79
2022-12-29T10:56:48.964Z,89.80
2022-12-29T10:59:24.451Z,89.52
2022-12-29T11:02:07.945Z,89.00
2022-12-29T11:04:58.291Z,89.05
2022-12-29T11:07:27.775Z,89.22
2022-12-29T11:09:56.382Z,89.04
2022-12-29T11:12:32.344Z,88.93
2022-12-29T11:15:16.593Z,88.80
2022-12-29T11:17:50.814Z,88.56
2022-12-29T11:20:34.296Z,88.50
2022-12-29T11:23:05.577Z,88.38
2022-12-29T11:25:34.664Z,87.30
2022-12-29T11:28:15.548Z,86.56
2022-12-29T11:30:44.392Z,86.37
2022-12-29T11:33:12.861Z,87.06
2022-12-29T11:35:44.392Z,87.43
2022-12-29T11:38:22.128Z,87.62
2022-12-29T11:40:51.047Z,88.06
2022-12-29T11:43:38.669Z,88.23
2022-12-29T11:46:07.960Z,88.74
2022-12-29T11:48:41.544Z,89.18
2022-12-29T11:51:11.165Z,89.45
2022-12-29T11:53:46.412Z,89.93
2022-12-29T11:56:17.983Z,90.58
2022-12-29T11:58:46.864Z,91.01
2022-12-29T12:01:25.271Z,91.08
2022-12-29T12:04:09.243Z,91.40
2022-12-29T12:06:40.774Z,91.91
2022-12-29T12:09:36.072Z,92.31
2022-12-29T12:12:05.850Z,92.40
2022-12-29T12:14:50.866Z,92.43
2022-12-29T12:17:38.599Z,92.69
2022-12-29T12:20:18.322Z,92.60
2022-12-29T12:22:52.838Z,92.83
2022-12-29T12:25:24.777Z,92.90
2022-12-29T12:27:59.827Z,92.93
2022-12-29T12:30:38.492Z,92.94
2022-12-29T12:33:19.640Z,92.93
2022-12-29T12:36:09.748Z,92.73
2022-12-29T12:38:58.674Z,92.57
2022-12-29T12:41:48.952Z,92.31
2022-12-29T12:44:22.836Z,92.16
2022-12-29T12:47:03.200Z,92.14
2022-12-29T12:49:43.735Z,91.75
2022-12-29T12:52:36.927Z,91.60
2022-12-29T12:55:17.140Z,91.25
2022-12-29T12:57:59.745Z,91.28
2022-12-29T13:00:33.510Z,91.13
2022-12-29T13:03:31.823Z,90.90
2022-12-29T13:06:25.560Z,91.05
2022-12-29T13:09:30.288Z,90.69
2022-12-29T13:12:20.849Z,90.64
2022-12-29T13:15:01.539Z,90.37
2022-12-29T13:17:46.129Z,90.52
2022-12-29T13:20:31.813Z,90.39
2022-12-29T13:23:17.491Z,90.30
2022-12-29T13:25:52.425Z,90.28
2022-12-29T13:28:40.668Z,90.17
2022-12-29T13:31:20.060Z,90.23
2022-12-29T13:33:56.675Z,90.26
2022-12-29T13:36:50.472Z,90.23
2022-12-29T13:39:38.354Z,90.16
2022-12-29T13:42:09.507Z,90.27
2022-12-29T13:44:45.076Z,90.36
2022-12-29T13:47:29.611Z,90.61
2022-12-29T13:50:03.772Z,90.78
2022-12-29T13:52:51.344Z,90.75
2022-12-29T13:55:27.801Z,90.88
2022-12-29T13:58:25.559Z,90.74
2022-12-29T14:01:04.912Z,91.00
2022-12-29T14:03:54.741Z,91.04
2022-12-29T14:06:42.069Z,90.88
2022-12-29T14:09:49.267Z,90.88
2022-12-29T14:12:43.880Z,91.02
2022-12-29T14:15:13.321Z,91.07
2022-12-29T14:18:21.756Z,90.94
2022-12-29T14:21:08.139Z,90.60
2022-12-29T14:23:39.429Z,90.97
2022-12-29T14:26:07.939Z,90.79
2022-12-29T14:28:41.967Z,90.69
2022-12-29T14:31:16.440Z,90.49
2022-12-29T14:34:13.167Z,91.04
2022-12-29T14:36:42.975Z,90.52
2022-12-29T14:39:44.218Z,90.44
2022-12-29T14:42:15.338Z,90.87
2022-12-29T14:45:04.372Z,90.52
2022-12-29T14:47:32.756Z,90.71
2022-12-29T14:50:12.280Z,90.46
2022-12-29T14:53:03.135Z,90.40
2022-12-29T14:55:42.745Z,90.84
2022-12-29T14:58:20.246Z,90.40
2022-12-29T15:00:49.610Z,90.20
2022-12-29T15:03:21.152Z,90.55
2022-12-29T15:05:54.000Z,90.92
2022-12-29T15:08:27.385Z,90.90
2022-12-29T15:11:14.632Z,90.45
2022-12-29T15:13:44.852Z,90.36
2022-12-29T15:16:35.065Z,90.56
2022-12-29T15:19:03.840Z,90.37
2022-12-29T15:21:35.243Z,90.17
2022-12-29T15:24:07.125Z,90.01
2022-12-29T15:26:44.181Z,90.25
2022-12-29T15:29:38.338Z,90.25
2022-12-29T15:32:25.780Z,90.53
2022-12-29T15:35:04.341Z,90.16
2022-12-29T15:37:39.096Z,90.45
2022-12-29T15:40:25.355Z,90.39
2022-12-29T15:43:24.816Z,90.56
2022-12-29T15:45:55.756Z,90.69
2022-12-29T15:48:25.776Z,90.61
2022-12-29T15:50:54.133Z,90.60
2022-12-29T15:53:29.527Z,90.39
2022-12-29T15:56:03.866Z,90.55
2022-12-29T15:58:42.495Z,90.60
2022-12-29T16:01:23.737Z,90.56
2022-12-29T16:03:53.549Z,90.89
2022-12-29T16:06:30.931Z,90.79
2022-12-29T16:09:15.916Z,90.83
2022-12-29T16:11:53.167Z,90.95
2022-12-29T16:14:44.685Z,90.78
2022-12-29T16:17:25.148Z,91.00
2022-12-29T16:20:01.686Z,90.49
2022-12-29T16:22:33.706Z,90.90
2022-12-29T16:25:17.385Z,90.54
2022-12-29T16:27:46.252Z,90.83
2022-12-29T16:30:24.270Z,90.58
2022-12-29T16:32:59.623Z,90.77
2022-12-29T16:35:31.242Z,90.84
2022-12-29T16:38:09.577Z,90.69
2022-12-29T16:40:57.488Z,90.61
2022-12-29T16:43:28.210Z,90.40
2022-12-29T16:45:59.602Z,90.75
2022-12-29T16:48:48.340Z,90.83
2022-12-29T16:51:38.354Z,90.82
2022-12-29T16:54:08.510Z,90.70
2022-12-29T16:56:37.699Z,90.67
2022-12-29T16:59:10.345Z,90.83
2022-12-29T17:01:40.401Z,90.85
2022-12-29T17:04:13.809Z,90.99
2022-12-29T17:06:42.259Z,91.13
2022-12-29T17:09:21.547Z,90.88
2022-12-29T17:12:02.520Z,91.06
2022-12-29T17:14:39.873Z,91.32
2022-12-29T17:17:41.063Z,91.12
2022-12-29T17:20:28.036Z,91.19
2022-12-29T17:22:57.629Z,91.46
2022-12-29T17:25:35.482Z,91.11
2022-12-29T17:28:11.904Z,91.17
2022-12-29T17:30:41.019Z,91.33
2022-12-29T17:33:15.828Z,91.24
2022-12-29T17:35:53.368Z,91.05
2022-12-29T17:38:29.910Z,90.94
2022-12-29T17:40:59.752Z,91.28
2022-12-29T17:43:34.742Z,91.16
2022-12-29T17:46:08.155Z,91.19
2022-12-29T17:48:37.572Z,91.20
2022-12-29T17:51:06.734Z,90.99
2022-12-29T17:53:35.399Z,91.19
2022-12-29T17:56:05.035Z,91.25
2022-12-29T17:58:33.591Z,91.25
2022-12-29T18:01:03.388Z,91.40
2022-12-29T18:03:35.495Z,91.43
2022-12-29T18:06:06.809Z,91.42
2022-12-29T18:08:41.357Z,91.48
2022-12-29T18:11:25.220Z,91.52
2022-12-29T18:13:54.537Z,91.66
2022-12-29T18:16:23.640Z,91.58
2022-12-29T18:18:52.223Z,91.55
2022-12-29T18:21:23.097Z,91.62
2022-12-29T18:23:51.986Z,91.41
2022-12-29T18:26:27.585Z,91.41
2022-12-29T18:28:57.412Z,91.46
2022-12-29T18:31:33.621Z,91.36
2022-12-29T18:34:07.685Z,91.48
2022-12-29T18:36:35.923Z,91.37
2022-12-29T18:39:04.175Z,91.22
2022-12-29T18:41:32.506Z,91.30
2022-12-29T18:44:00.845Z,91.17
2022-12-29T18:46:30.262Z,91.23
2022-12-29T18:48:58.662Z,90.90
2022-12-29T18:51:26.846Z,91.28
2022-12-29T18:53:55.112Z,90.91
2022-12-29T18:56:24.431Z,90.89
2022-12-29T18:58:57.162Z,91.34
2022-12-29T19:01:31.247Z,91.00
2022-12-29T19:04:01.052Z,91.04
2022-12-29T19:06:29.564Z,91.02
2022-12-29T19:08:57.900Z,90.72
2022-12-29T19:11:26.286Z,90.89
2022-12-29T19:13:54.707Z,90.98
2022-12-29T19:16:25.153Z,90.72
2022-12-29T19:19:09.074Z,90.96
2022-12-29T19:21:38.376Z,90.95
2022-12-29T19:24:07.163Z,91.08
2022-12-29T19:26:37.739Z,90.88
2022-12-29T19:29:08.972Z,91.06
2022-12-29T19:31:38.568Z,90.88
2022-12-29T19:34:07.313Z,90.86
2022-12-29T19:36:35.699Z,90.70
2022-12-29T19:39:04.709Z,90.91
2022-12-29T19:41:33.339Z,91.03
2022-12-29T19:44:01.759Z,91.28
2022-12-29T19:46:30.188Z,91.12
2022-12-29T19:49:03.812Z,90.96
2022-12-29T19:51:32.202Z,91.34
2022-12-29T19:54:00.729Z,91.34
2022-12-29T19:56:29.133Z,91.49
2022-12-29T19:59:00.409Z,91.53
2022-12-29T20:01:28.854Z,91.68
2022-12-29T20:03:57.922Z,91.67
2022-12-29T20:06:26.310Z,91.78
2022-12-29T20:08:55.777Z,91.52
2022-12-29T20:11:25.313Z,91.80
2022-12-29T20:13:55.305Z,91.64
2022-12-29T20:16:25.509Z,91.66
2022-12-29T20:18:55.525Z,91.50
2022-12-29T20:21:26.150Z,91.53
2022-12-29T20:23:56.790Z,91.47
2022-12-29T20:26:30.041Z,91.30
2022-12-29T20:29:00.722Z,91.54
2022-12-29T20:31:33.467Z,91.36
2022-12-29T20:34:03.490Z,91.58
2022-12-29T20:36:35.132Z,91.43
2022-12-29T20:39:07.885Z,91.63
2022-12-29T20:41:36.614Z,91.45
2022-12-29T20:44:05.576Z,91.36
2022-12-29T20:46:43.071Z,91.36
2022-12-29T20:49:13.074Z,91.83
2022-12-29T20:54:38.661Z,91.53
2022-12-29T20:57:08.284Z,91.38
2022-12-29T20:59:37.141Z,91.28
2022-12-29T21:02:06.018Z,91.14
2022-12-29T21:04:57.433Z,91.17
2022-12-29T21:07:22.602Z,90.96
2022-12-29T21:09:50.863Z,90.93
2022-12-29T21:12:19.231Z,90.76
2022-12-29T21:14:47.488Z,90.81
2022-12-29T21:17:15.821Z,90.86
2022-12-29T21:19:44.236Z,91.16
2022-12-29T21:22:12.578Z,90.77
2022-12-29T21:24:41.358Z,90.80
2022-12-29T21:27:14.139Z,90.82
2022-12-29T21:29:43.235Z,90.56
2022-12-29T21:32:12.869Z,90.58
2022-12-29T21:34:41.221Z,90.51
2022-12-29T21:37:09.910Z,90.64
2022-12-29T21:39:38.281Z,90.58
2022-12-29T21:42:06.634Z,90.67
2022-12-29T21:44:53.965Z,90.73
2022-12-29T21:47:24.687Z,90.49
2022-12-29T21:49:57.692Z,90.70
2022-12-29T21:52:26.462Z,90.61
2022-12-29T21:55:01.056Z,90.54
2022-12-29T21:57:48.124Z,90.71
2022-12-29T22:00:43.367Z,90.66
2022-12-29T22:03:30.748Z,90.73
2022-12-29T22:06:17.853Z,90.88
2022-12-29T22:09:05.076Z,91.10
2022-12-29T22:11:52.179Z,90.89
2022-12-29T22:14:20.485Z,90.98
2022-12-29T22:16:48.805Z,90.90
2022-12-29T22:19:17.306Z,91.07
2022-12-29T22:21:45.465Z,90.97
2022-12-29T22:24:13.646Z,90.60
2022-12-29T22:26:41.849Z,91.02
2022-12-29T22:29:10.049Z,90.98
2022-12-29T22:31:38.264Z,90.94
2022-12-29T22:34:06.640Z,90.98
2022-12-29T22:36:35.144Z,90.88
2022-12-29T22:39:05.082Z,90.75
2022-12-29T22:41:33.618Z,90.86
2022-12-29T22:44:02.097Z,90.63
2022-12-29T22:46:30.641Z,90.84
2022-12-29T22:48:58.899Z,90.93
2022-12-29T22:51:27.158Z,90.94
2022-12-29T22:53:55.312Z,90.98
2022-12-29T22:56:23.656Z,90.88
2022-12-29T22:58:51.858Z,90.83
2022-12-29T23:01:23.556Z,90.96
2022-12-29T23:03:52.124Z,91.16
2022-12-29T23:06:20.525Z,91.14
2022-12-29T23:08:48.784Z,91.19
2022-12-29T23:11:17.141Z,90.96
2022-12-29T23:13:45.348Z,91.21
2022-12-29T23:16:15.463Z,91.12
2022-12-29T23:18:47.146Z,91.27
2022-12-29T23:21:17.320Z,91.19
2022-12-29T23:23:56.008Z,90.97
2022-12-29T23:26:30.974Z,91.41
2022-12-29T23:29:00.876Z,91.30
2022-12-29T23:31:30.587Z,91.14
2022-12-29T23:34:00.449Z,91.29
2022-12-29T23:36:30.083Z,91.27
2022-12-29T23:38:58.693Z,91.09
2022-12-29T23:41:27.771Z,91.27
2022-12-29T23:43:56.083Z,91.19
2022-12-29T23:46:27.397Z,91.04
2022-12-29T23:48:56.518Z,91.15
2022-12-29T23:51:24.701Z,90.91
2022-12-29T23:53:52.825Z,91.10
2022-12-29T23:56:23.078Z,90.73
2022-12-29T23:58:51.489Z,90.79
